Time;durP1;ratioP1;P1;durP2;ratioP2;P2;SDS_P1;SDS_P2;PMS_P1;PMS_P2;Temp;Humidity;BMP_temperature;BMP_pressure;BME280_temperature;BME280_humidity;BME280_pressure;Samples;Min_cycle;Max_cycle;Signal;HPM_P1;HPM_P2
2022/06/05 00:01:16;;;;;;;1.43;0.90;;;14.60;99.90;;;;;;5067303;28;20549;-67
2022/06/05 00:03:54;;;;;;;1.60;0.80;;;14.70;99.90;;;;;;5048981;28;20231;-68
2022/06/05 00:06:45;;;;;;;1.93;1.10;;;14.90;99.90;;;;;;5070611;28;20172;-68
2022/06/05 00:09:33;;;;;;;1.70;0.90;;;14.80;99.90;;;;;;5073547;28;20218;-68
2022/06/05 00:12:14;;;;;;;0.77;0.77;;;14.90;99.90;;;;;;5075748;28;20214;-68
2022/06/05 00:14:43;;;;;;;2.30;1.00;;;15.00;99.90;;;;;;5075338;28;20176;-68
2022/06/05 00:17:15;;;;;;;1.50;0.90;;;15.20;99.90;;;;;;5074713;28;20230;-68
2022/06/05 00:19:46;;;;;;;3.70;1.00;;;15.60;99.90;;;;;;5075329;28;20173;-67
2022/06/05 00:22:14;;;;;;;1.63;0.90;;;15.60;99.90;;;;;;5075338;28;20225;-67
2022/06/05 00:24:41;;;;;;;1.67;0.70;;;16.10;99.90;;;;;;5075189;28;20255;-67
2022/06/05 00:27:27;;;;;;;1.30;0.60;;;16.40;99.90;;;;;;5074930;28;20176;-67
2022/06/05 00:30:21;;;;;;;2.47;0.80;;;17.10;99.90;;;;;;5074830;28;20229;-67
2022/06/05 00:33:03;;;;;;;3.47;1.10;;;17.30;99.90;;;;;;5075100;28;20168;-67
2022/06/05 00:35:32;;;;;;;4.70;0.63;;;17.60;99.90;;;;;;5075362;28;20176;-68
2022/06/05 00:38:18;;;;;;;0.90;0.70;;;18.30;99.90;;;;;;5075079;28;20184;-67
2022/06/05 00:40:51;;;;;;;1.97;0.60;;;18.40;99.90;;;;;;5071782;28;20238;-66
2022/06/05 00:43:21;;;;;;;1.47;0.63;;;18.60;99.90;;;;;;5073336;28;20184;-68
2022/06/05 00:45:48;;;;;;;1.00;0.60;;;18.30;99.90;;;;;;5072851;28;20176;-68
2022/06/05 00:48:16;;;;;;;1.57;1.07;;;18.20;99.90;;;;;;5072740;28;20670;-67
2022/06/05 00:50:45;;;;;;;2.73;0.83;;;18.20;99.90;;;;;;5072903;28;20308;-67
2022/06/05 00:53:12;;;;;;;3.13;0.97;;;18.60;99.90;;;;;;5073432;28;20172;-67
2022/06/05 00:55:47;;;;;;;2.13;0.97;;;19.20;99.90;;;;;;5072072;28;20665;-68
2022/06/05 00:58:16;;;;;;;1.23;0.73;;;19.10;99.90;;;;;;5070440;28;20218;-68
2022/06/05 01:00:53;;;;;;;5.03;2.43;;;19.60;99.90;;;;;;5072918;28;20224;-66
2022/06/05 01:03:22;;;;;;;2.47;1.20;;;19.90;99.90;;;;;;5072024;28;20553;-67
2022/06/05 01:05:51;;;;;;;1.07;0.60;;;19.70;99.90;;;;;;5072959;28;20187;-68
2022/06/05 01:08:19;;;;;;;3.30;0.83;;;20.20;99.90;;;;;;5073239;28;20194;-69
2022/06/05 01:11:10;;;;;;;1.40;1.00;;;20.40;99.90;;;;;;5072832;28;20204;-67
2022/06/05 01:14:01;;;;;;;4.47;1.27;;;20.00;99.90;;;;;;5072817;28;20206;-69
2022/06/05 01:16:32;;;;;;;1.43;0.60;;;19.80;99.90;;;;;;5073146;28;20269;-69
2022/06/05 01:19:18;;;;;;;0.80;0.80;;;20.20;99.90;;;;;;5072823;28;20225;-68
2022/06/05 01:22:11;;;;;;;1.27;0.50;;;19.90;99.90;;;;;;5071906;28;20188;-69
2022/06/05 01:25:12;;;;;;;1.17;0.70;;;20.10;99.90;;;;;;5070595;28;20196;-68
2022/06/05 01:27:44;;;;;;;3.30;0.50;;;20.70;99.90;;;;;;5072795;28;20186;-68
2022/06/05 01:30:19;;;;;;;1.77;0.60;;;20.90;99.90;;;;;;5072171;28;20534;-68
2022/06/05 01:33:14;;;;;;;1.40;0.50;;;20.70;99.90;;;;;;5072574;28;20641;-68
2022/06/05 01:35:49;;;;;;;1.33;1.00;;;20.90;99.90;;;;;;5072933;28;20182;-68
2022/06/05 01:38:36;;;;;;;1.90;0.90;;;21.00;99.90;;;;;;5072257;28;20175;-68
2022/06/05 01:41:14;;;;;;;1.10;0.80;;;20.50;99.90;;;;;;5068894;28;20251;-69
2022/06/05 01:43:49;;;;;;;2.63;1.00;;;19.70;99.90;;;;;;5072996;28;20175;-70
2022/06/05 01:46:37;;;;;;;2.97;0.80;;;19.40;99.90;;;;;;5072531;28;20214;-71
2022/06/05 01:49:20;;;;;;;3.17;1.03;;;19.50;99.90;;;;;;5066076;28;20204;-68
2022/06/05 01:52:12;;;;;;;3.03;1.10;;;19.90;99.90;;;;;;5072095;28;20219;-70
2022/06/05 01:55:11;;;;;;;4.07;1.03;;;19.70;99.90;;;;;;5072304;28;20565;-68
2022/06/05 01:57:39;;;;;;;1.23;0.70;;;19.60;99.90;;;;;;5072045;28;20187;-69
2022/06/05 02:00:21;;;;;;;1.53;0.73;;;19.80;99.90;;;;;;5072561;28;20182;-69
2022/06/05 02:03:01;;;;;;;5.23;1.13;;;20.00;99.90;;;;;;5070996;28;20175;-68
2022/06/05 02:05:38;;;;;;;1.23;0.80;;;20.30;99.90;;;;;;5072407;28;20180;-68
2022/06/05 02:08:24;;;;;;;1.97;0.97;;;20.10;99.90;;;;;;5070909;28;20188;-67
2022/06/05 02:10:58;;;;;;;3.43;0.97;;;20.20;99.90;;;;;;5072013;28;20277;-68
2022/06/05 02:13:26;;;;;;;1.63;0.67;;;20.50;99.90;;;;;;5071937;28;20211;-68
2022/06/05 02:15:54;;;;;;;1.47;0.67;;;21.00;99.90;;;;;;5071961;28;20195;-69
2022/06/05 02:18:22;;;;;;;1.30;0.60;;;20.20;99.90;;;;;;5071441;28;20309;-67
2022/06/05 02:20:50;;;;;;;2.37;1.00;;;19.60;99.90;;;;;;5071801;28;20273;-68
2022/06/05 02:23:22;;;;;;;1.67;1.00;;;19.60;99.90;;;;;;5071882;28;20186;-67
2022/06/05 02:25:50;;;;;;;4.10;1.00;;;19.80;99.90;;;;;;5071237;28;20234;-67
2022/06/05 02:28:21;;;;;;;1.47;0.80;;;20.00;99.90;;;;;;5071114;28;20172;-68
2022/06/05 02:31:10;;;;;;;0.90;0.70;;;20.40;99.90;;;;;;5071140;28;20301;-68
2022/06/05 02:33:46;;;;;;;0.40;0.37;;;20.40;99.90;;;;;;5071565;28;20184;-69
2022/06/05 02:36:41;;;;;;;1.00;0.50;;;20.50;99.90;;;;;;5072051;28;20168;-70
2022/06/05 02:39:30;;;;;;;1.20;0.60;;;21.20;99.90;;;;;;5070978;28;20186;-69
2022/06/05 02:42:31;;;;;;;2.77;1.20;;;21.30;99.90;;;;;;5071882;28;20179;-68
2022/06/05 02:45:12;;;;;;;1.03;0.60;;;21.30;99.90;;;;;;5051939;28;20183;-69
2022/06/05 02:48:04;;;;;;;0.60;0.50;;;21.10;99.90;;;;;;5068270;28;20194;-69
2022/06/05 02:50:40;;;;;;;0.97;0.60;;;21.50;99.90;;;;;;5057782;28;20571;-69
2022/06/05 02:53:09;;;;;;;1.13;0.70;;;21.50;99.90;;;;;;5072143;28;20199;-69
2022/06/05 02:55:37;;;;;;;2.13;0.47;;;21.00;99.90;;;;;;5071712;28;20180;-67
2022/06/05 02:58:06;;;;;;;0.40;0.40;;;21.30;99.90;;;;;;5071506;28;20191;-68
2022/06/05 03:00:36;;;;;;;1.50;0.50;;;21.50;99.90;;;;;;5071534;28;20604;-67
2022/06/05 03:05:49;;;;;;;1.40;0.70;;;22.10;99.90;;;;;;5071409;28;20258;-69
2022/06/05 03:08:18;;;;;;;6.17;0.90;;;21.30;99.90;;;;;;5071510;28;20267;-69
2022/06/05 03:10:46;;;;;;;0.70;0.50;;;20.60;99.90;;;;;;5071498;28;20302;-67
2022/06/05 03:13:14;;;;;;;0.60;0.60;;;20.20;99.90;;;;;;5071432;28;20171;-68
2022/06/05 03:15:42;;;;;;;1.30;0.70;;;20.20;99.90;;;;;;5071739;28;20180;-68
2022/06/05 03:18:15;;;;;;;0.63;0.47;;;20.40;99.90;;;;;;5071646;28;20222;-69
2022/06/05 03:20:42;;;;;;;0.50;0.40;;;20.10;99.90;;;;;;5071441;28;20175;-69
2022/06/05 03:23:11;;;;;;;1.00;0.83;;;19.70;99.90;;;;;;5070997;28;20176;-69
2022/06/05 03:25:42;;;;;;;0.43;0.40;;;19.40;99.90;;;;;;5070928;28;20761;-71
2022/06/05 03:28:10;;;;;;;0.40;0.40;;;19.20;99.90;;;;;;5071483;28;20179;-70
2022/06/05 03:30:39;;;;;;;0.50;0.40;;;19.20;99.90;;;;;;5071033;28;20292;-69
2022/06/05 03:33:08;;;;;;;1.80;0.60;;;19.00;99.90;;;;;;5071050;28;20208;-69
2022/06/05 03:35:44;;;;;;;0.37;0.37;;;19.10;99.90;;;;;;5069634;28;20180;-68
2022/06/05 03:38:14;;;;;;;1.93;0.80;;;18.90;99.90;;;;;;5063448;28;20262;-70
2022/06/05 03:40:43;;;;;;;1.90;0.83;;;18.90;99.90;;;;;;5053838;28;20196;-70
2022/06/05 03:43:11;;;;;;;1.93;0.47;;;18.80;99.90;;;;;;5060127;28;20188;-68
2022/06/05 03:45:38;;;;;;;0.53;0.40;;;18.90;99.90;;;;;;5074864;28;20184;-70
2022/06/05 03:48:07;;;;;;;2.60;0.60;;;18.90;99.90;;;;;;5073592;28;20180;-70
2022/06/05 03:50:38;;;;;;;0.70;0.57;;;19.20;99.90;;;;;;5073384;28;20205;-68
2022/06/05 03:53:06;;;;;;;2.00;0.60;;;19.20;99.90;;;;;;5074419;28;20188;-67
2022/06/05 03:55:34;;;;;;;0.77;0.50;;;19.20;99.90;;;;;;5074318;28;20278;-68
2022/06/05 03:58:01;;;;;;;1.07;0.60;;;18.90;99.90;;;;;;5074923;28;20222;-68
2022/06/05 04:00:28;;;;;;;1.20;0.60;;;18.80;99.90;;;;;;5074675;28;20588;-69
2022/06/05 04:02:56;;;;;;;1.97;0.50;;;18.80;99.90;;;;;;5074671;28;20214;-67
2022/06/05 04:05:23;;;;;;;2.43;0.40;;;18.80;99.90;;;;;;5073942;28;20180;-69
2022/06/05 04:07:51;;;;;;;0.63;0.40;;;18.70;99.90;;;;;;5074326;28;20204;-68
2022/06/05 04:10:19;;;;;;;2.67;0.60;;;18.80;99.90;;;;;;5074558;28;20618;-69
2022/06/05 04:12:47;;;;;;;0.53;0.40;;;18.60;99.90;;;;;;5076413;28;20189;-66
2022/06/05 04:15:15;;;;;;;1.97;0.57;;;18.40;99.90;;;;;;5099632;28;20173;-70
2022/06/05 04:17:42;;;;;;;1.17;0.60;;;18.30;99.90;;;;;;5079672;28;20228;-68
2022/06/05 04:20:11;;;;;;;0.83;0.57;;;18.20;99.90;;;;;;5092870;28;20183;-69
2022/06/05 04:22:39;;;;;;;1.60;0.60;;;18.20;99.90;;;;;;5090326;28;20654;-69
2022/06/05 04:25:11;;;;;;;0.50;0.40;;;18.20;99.90;;;;;;5077597;28;20188;-69
2022/06/05 04:27:38;;;;;;;1.37;0.60;;;18.20;99.90;;;;;;5082871;28;20271;-70
2022/06/05 04:30:06;;;;;;;2.43;0.73;;;18.10;99.90;;;;;;5081802;28;20194;-67
2022/06/05 04:32:33;;;;;;;1.10;0.60;;;17.90;99.90;;;;;;5078371;28;20203;-67
2022/06/05 04:35:01;;;;;;;1.63;0.70;;;17.80;99.90;;;;;;5076000;28;20176;-69
2022/06/05 04:37:28;;;;;;;0.90;0.50;;;17.80;99.90;;;;;;5076135;28;20181;-69
2022/06/05 04:39:55;;;;;;;2.90;0.50;;;17.80;99.90;;;;;;5075342;28;20176;-69
2022/06/05 04:42:23;;;;;;;1.27;0.70;;;17.80;99.90;;;;;;5075271;28;20370;-68
2022/06/05 04:44:50;;;;;;;0.90;0.60;;;17.70;99.90;;;;;;5074200;28;20250;-69
2022/06/05 04:47:18;;;;;;;10.43;8.53;;;17.60;99.90;;;;;;5074258;28;20180;-70
2022/06/05 04:49:45;;;;;;;3.70;1.57;;;17.60;99.90;;;;;;5074132;28;20652;-68
2022/06/05 04:52:12;;;;;;;2.07;1.13;;;17.50;99.90;;;;;;5073979;28;20695;-69
2022/06/05 04:54:40;;;;;;;2.47;1.43;;;17.50;99.90;;;;;;5073735;28;20263;-69
2022/06/05 04:57:08;;;;;;;2.77;1.10;;;17.40;99.90;;;;;;5073279;28;20187;-68
2022/06/05 04:59:36;;;;;;;1.33;0.80;;;17.40;99.90;;;;;;5073932;28;20179;-69
2022/06/05 05:02:04;;;;;;;2.07;0.80;;;17.30;99.90;;;;;;5073791;28;20273;-70
2022/06/05 05:04:31;;;;;;;5.67;2.90;;;17.30;99.90;;;;;;5073614;28;20180;-68
2022/06/05 05:06:59;;;;;;;1.67;0.80;;;17.20;99.90;;;;;;5073562;28;20176;-67
2022/06/05 05:09:26;;;;;;;1.00;0.60;;;17.20;99.90;;;;;;5072377;28;20229;-67
2022/06/05 05:11:54;;;;;;;3.10;0.90;;;17.10;99.90;;;;;;5073552;28;20215;-70
2022/06/05 05:14:21;;;;;;;2.10;0.70;;;17.00;99.90;;;;;;5073504;28;20172;-69
2022/06/05 05:16:48;;;;;;;3.73;2.37;;;17.00;99.90;;;;;;5073422;28;20263;-69
2022/06/05 05:19:16;;;;;;;2.50;1.00;;;17.00;99.90;;;;;;5073068;28;20232;-68
2022/06/05 05:21:43;;;;;;;1.10;0.63;;;16.90;99.90;;;;;;5073279;28;20642;-69
2022/06/05 05:24:11;;;;;;;1.47;0.80;;;16.90;99.90;;;;;;5073398;28;20593;-69
2022/06/05 05:26:38;;;;;;;1.77;1.10;;;16.90;99.90;;;;;;5071843;28;20191;-69
2022/06/05 05:29:07;;;;;;;1.07;0.77;;;16.80;99.90;;;;;;5073069;28;20189;-69
2022/06/05 05:31:39;;;;;;;2.00;0.70;;;16.80;99.90;;;;;;5073109;28;20642;-68
2022/06/05 05:34:11;;;;;;;1.13;0.70;;;16.70;99.90;;;;;;5073178;28;20655;-69
2022/06/05 05:36:38;;;;;;;1.00;0.70;;;16.70;99.90;;;;;;5072660;28;20180;-68
2022/06/05 05:42:07;;;;;;;2.53;1.27;;;16.60;99.90;;;;;;5073156;28;20257;-69
2022/06/05 05:44:41;;;;;;;1.57;1.47;;;16.60;99.90;;;;;;5072821;28;20179;-69
2022/06/05 05:47:12;;;;;;;1.20;1.00;;;16.50;99.90;;;;;;5072540;28;20200;-69
2022/06/05 05:49:40;;;;;;;1.63;1.10;;;16.40;99.90;;;;;;5072813;28;20180;-67
2022/06/05 05:52:08;;;;;;;2.50;0.90;;;16.40;99.90;;;;;;5072670;28;20314;-68
2022/06/05 05:54:36;;;;;;;1.93;1.37;;;16.30;99.90;;;;;;5072605;28;20180;-68
2022/06/05 05:57:05;;;;;;;0.60;0.60;;;16.30;99.90;;;;;;5072375;28;20196;-67
2022/06/05 05:59:33;;;;;;;1.30;0.57;;;16.20;99.90;;;;;;5072634;28;20528;-69
2022/06/05 06:02:00;;;;;;;1.97;0.70;;;16.10;99.90;;;;;;5072827;28;20271;-68
2022/06/05 06:04:28;;;;;;;1.30;0.70;;;16.10;99.90;;;;;;5072397;28;20214;-67
2022/06/05 06:06:55;;;;;;;2.80;1.00;;;16.00;99.90;;;;;;5071747;28;20233;-67
2022/06/05 06:09:22;;;;;;;2.93;1.20;;;16.00;99.90;;;;;;5071156;28;20578;-68
2022/06/05 06:11:50;;;;;;;2.70;0.70;;;16.00;99.90;;;;;;5072069;28;20225;-68
2022/06/05 06:14:17;;;;;;;1.17;0.93;;;15.90;99.90;;;;;;5070981;28;20176;-69
2022/06/05 06:16:45;;;;;;;2.10;1.00;;;15.90;99.90;;;;;;5071995;28;20194;-69
2022/06/05 06:19:12;;;;;;;1.37;0.83;;;15.80;99.90;;;;;;5072031;28;20335;-70
2022/06/05 06:21:40;;;;;;;2.77;1.03;;;15.70;99.90;;;;;;5072349;28;20317;-68
2022/06/05 06:24:07;;;;;;;1.30;1.07;;;15.60;99.90;;;;;;5072090;28;20217;-69
2022/06/05 06:26:35;;;;;;;1.73;0.90;;;15.60;99.90;;;;;;5071622;28;20277;-69
2022/06/05 06:29:02;;;;;;;3.20;1.27;;;15.50;99.90;;;;;;5071876;28;20184;-67
2022/06/05 06:31:30;;;;;;;3.07;1.40;;;15.50;99.90;;;;;;5072081;28;20215;-68
2022/06/05 06:33:58;;;;;;;1.00;0.80;;;15.40;99.90;;;;;;5072035;28;20175;-69
2022/06/05 06:36:26;;;;;;;1.50;0.97;;;15.40;99.90;;;;;;5071728;28;20268;-68
2022/06/05 06:38:53;;;;;;;2.03;0.97;;;15.20;99.90;;;;;;5071755;28;20179;-68
2022/06/05 06:41:21;;;;;;;3.40;1.60;;;15.20;99.90;;;;;;5071851;28;20271;-67
2022/06/05 06:43:49;;;;;;;2.73;1.50;;;15.10;99.90;;;;;;5071847;28;20183;-68
2022/06/05 06:46:18;;;;;;;3.60;1.90;;;15.00;99.90;;;;;;5071549;28;20199;-69
2022/06/05 06:48:47;;;;;;;2.10;1.53;;;15.00;99.90;;;;;;5071781;28;20225;-68
2022/06/05 06:51:16;;;;;;;2.70;1.43;;;14.80;99.90;;;;;;5070432;28;20597;-72
2022/06/05 06:53:44;;;;;;;2.63;1.27;;;14.80;99.90;;;;;;5070817;28;20179;-68
2022/06/05 06:56:27;;;;;;;1.43;1.23;;;14.70;99.90;;;;;;5071953;28;20182;-69
2022/06/05 06:58:55;;;;;;;5.43;1.60;;;14.70;99.90;;;;;;5072005;28;20175;-68
2022/06/05 07:01:23;;;;;;;2.80;1.30;;;14.60;99.90;;;;;;5070552;28;20180;-68
2022/06/05 07:03:50;;;;;;;3.50;1.03;;;14.50;99.90;;;;;;5071678;28;20171;-69
2022/06/05 07:06:20;;;;;;;3.83;1.20;;;14.40;99.90;;;;;;5071265;28;20211;-68
2022/06/05 07:08:49;;;;;;;3.73;1.53;;;14.40;99.90;;;;;;5071457;28;20191;-69
2022/06/05 07:11:17;;;;;;;1.87;0.90;;;14.30;99.90;;;;;;5071521;28;20626;-68
2022/06/05 07:13:44;;;;;;;1.30;0.90;;;14.40;99.90;;;;;;5071684;28;20596;-68
2022/06/05 07:16:13;;;;;;;1.13;0.93;;;14.40;99.90;;;;;;5070880;28;20237;-67
2022/06/05 07:18:41;;;;;;;3.60;1.40;;;14.40;99.90;;;;;;5071971;28;20225;-68
2022/06/05 07:21:21;;;;;;;1.17;0.90;;;14.40;99.90;;;;;;5075777;28;20262;-69
2022/06/05 07:23:48;;;;;;;2.80;1.00;;;14.30;99.90;;;;;;5075636;28;20179;-68
2022/06/05 07:26:19;;;;;;;3.67;1.20;;;14.30;99.90;;;;;;5075221;28;20185;-69
2022/06/05 07:28:47;;;;;;;2.77;1.00;;;14.20;99.90;;;;;;5075275;28;20199;-68
2022/06/05 07:31:16;;;;;;;5.17;2.07;;;14.20;99.90;;;;;;5075683;28;20683;-68
2022/06/05 07:33:43;;;;;;;4.23;2.07;;;14.20;99.90;;;;;;5075445;28;20212;-69
2022/06/05 07:36:20;;;;;;;3.13;1.60;;;14.00;99.90;;;;;;5074845;28;20187;-69
2022/06/05 07:38:49;;;;;;;2.13;1.33;;;14.00;99.90;;;;;;5073653;28;20244;-69
2022/06/05 07:41:19;;;;;;;1.63;1.10;;;13.90;99.90;;;;;;5075125;28;20687;-69
2022/06/05 07:43:46;;;;;;;3.13;1.40;;;13.80;99.90;;;;;;5075322;28;20287;-69
2022/06/05 07:46:14;;;;;;;5.03;1.83;;;13.90;99.90;;;;;;5074803;28;20270;-68
2022/06/05 07:48:42;;;;;;;3.40;2.57;;;13.80;99.90;;;;;;5075038;28;20183;-68
2022/06/05 07:56:46;;;;;;;6.10;2.40;;;13.80;99.90;;;;;;5074392;28;20198;-69
2022/06/05 07:59:14;;;;;;;5.27;2.30;;;13.80;99.90;;;;;;5074843;28;20667;-69
2022/06/05 08:01:41;;;;;;;3.47;2.00;;;13.70;99.90;;;;;;5074842;28;20181;-69
2022/06/05 08:04:08;;;;;;;5.50;2.30;;;13.60;99.90;;;;;;5073179;28;20182;-70
2022/06/05 08:06:36;;;;;;;4.63;2.30;;;13.50;99.90;;;;;;5074486;28;20181;-68
2022/06/05 08:09:05;;;;;;;6.67;3.40;;;13.40;99.90;;;;;;5074578;28;20214;-69
2022/06/05 08:11:33;;;;;;;5.30;3.60;;;13.30;99.90;;;;;;5074672;28;20218;-70
2022/06/05 08:14:01;;;;;;;4.10;2.80;;;13.30;99.90;;;;;;5074710;28;20206;-70
2022/06/05 08:16:29;;;;;;;5.03;2.53;;;13.20;99.90;;;;;;5074690;28;20218;-69
2022/06/05 08:18:57;;;;;;;5.93;3.40;;;13.20;99.90;;;;;;5073942;28;20227;-70
2022/06/05 08:21:26;;;;;;;3.13;2.50;;;13.10;99.90;;;;;;5074422;28;20195;-70
2022/06/05 08:23:53;;;;;;;3.30;2.30;;;13.00;99.90;;;;;;5074462;28;20546;-69
2022/06/05 08:26:21;;;;;;;5.37;2.97;;;13.10;99.90;;;;;;5074219;28;20189;-70
2022/06/05 08:28:48;;;;;;;13.47;5.53;;;13.20;99.90;;;;;;5073943;28;20565;-69
2022/06/05 08:31:16;;;;;;;5.67;3.57;;;13.10;99.90;;;;;;5073889;28;20228;-69
2022/06/05 08:33:44;;;;;;;7.13;3.60;;;13.10;99.90;;;;;;5074282;28;20178;-69
2022/06/05 08:36:12;;;;;;;5.83;3.33;;;13.10;99.90;;;;;;5073106;28;20197;-70
2022/06/05 08:41:28;;;;;;;2.97;1.77;;;12.90;99.90;;;;;;5073920;28;20250;-68
2022/06/05 08:44:12;;;;;;;2.93;1.77;;;13.00;99.90;;;;;;5074134;28;20257;-68
2022/06/05 08:46:51;;;;;;;4.43;1.50;;;12.90;99.90;;;;;;5072980;28;20285;-67
2022/06/05 08:49:29;;;;;;;4.70;1.83;;;13.00;99.90;;;;;;5073964;28;20177;-70
2022/06/05 08:52:29;;;;;;;4.60;1.70;;;13.00;99.90;;;;;;5073855;28;20221;-69
2022/06/05 08:55:12;;;;;;;5.37;2.23;;;12.90;99.90;;;;;;5074066;28;20230;-70
2022/06/05 08:57:52;;;;;;;3.93;2.33;;;12.80;99.90;;;;;;5073872;28;20182;-69
2022/06/05 09:00:24;;;;;;;2.70;1.80;;;12.80;99.90;;;;;;5073665;28;20217;-67
2022/06/05 09:02:58;;;;;;;3.07;1.70;;;12.90;99.90;;;;;;5073764;28;20184;-71
2022/06/05 09:05:25;;;;;;;6.87;1.90;;;12.70;99.90;;;;;;5073749;28;20638;-69
2022/06/05 09:08:03;;;;;;;4.07;2.10;;;12.70;99.90;;;;;;5073918;28;20175;-69
2022/06/05 09:10:43;;;;;;;5.30;2.70;;;12.60;99.90;;;;;;5073590;28;20211;-69
2022/06/05 09:13:18;;;;;;;4.37;2.20;;;12.60;99.90;;;;;;5073710;28;20182;-70
2022/06/05 09:15:51;;;;;;;5.07;2.40;;;12.50;99.90;;;;;;5073651;28;20181;-67
2022/06/05 09:18:22;;;;;;;4.63;2.53;;;12.40;99.90;;;;;;5073458;28;20307;-69
2022/06/05 09:20:56;;;;;;;3.40;1.87;;;12.30;99.90;;;;;;5073441;28;20200;-68
2022/06/05 09:23:26;;;;;;;3.30;1.97;;;12.30;99.90;;;;;;5071261;28;20322;-67
2022/06/05 09:26:10;;;;;;;5.83;2.20;;;12.40;99.90;;;;;;5073021;28;20181;-67
2022/06/05 09:28:45;;;;;;;2.83;1.47;;;12.30;99.90;;;;;;5073151;28;20230;-67
2022/06/05 09:31:56;;;;;;;4.40;1.63;;;12.20;99.90;;;;;;5073429;28;20235;-68
2022/06/05 09:34:47;;;;;;;5.87;1.40;;;12.20;99.90;;;;;;5031065;28;20231;-68
2022/06/05 09:37:33;;;;;;;3.97;2.30;;;12.20;99.90;;;;;;5053346;28;20208;-69
2022/06/05 09:40:37;;;;;;;5.70;2.50;;;12.10;99.90;;;;;;5053986;28;20185;-67
2022/06/05 09:43:24;;;;;;;6.30;3.40;;;12.00;99.90;;;;;;5064289;28;20644;-69
2022/06/05 09:46:10;;;;;;;4.70;2.67;;;11.90;99.90;;;;;;5075586;28;20230;-68
2022/06/05 09:48:59;;;;;;;6.57;3.80;;;11.80;99.90;;;;;;5073510;28;20232;-67
2022/06/05 09:51:26;;;;;;;1.97;1.53;;;11.70;99.90;;;;;;5073782;28;20218;-67
2022/06/05 09:54:07;;;;;;;4.17;2.20;;;11.70;99.90;;;;;;5073413;28;20659;-69
2022/06/05 09:59:48;;;;;;;3.27;1.10;;;11.90;99.90;;;;;;5074293;28;20191;-69
2022/06/05 10:02:19;;;;;;;1.90;0.97;;;12.10;99.90;;;;;;5073728;28;20195;-68
2022/06/05 10:04:48;;;;;;;2.13;1.10;;;12.10;99.90;;;;;;5071273;28;20210;-68
2022/06/05 10:07:41;;;;;;;2.27;1.40;;;12.10;99.90;;;;;;5072021;28;20548;-69
2022/06/05 10:10:21;;;;;;;1.47;1.00;;;12.30;99.90;;;;;;5068690;28;20194;-71
2022/06/05 10:13:02;;;;;;;4.07;1.57;;;12.20;99.90;;;;;;5072250;28;20176;-69
2022/06/05 10:15:41;;;;;;;1.40;1.23;;;12.30;99.90;;;;;;5071991;28;20817;-69
2022/06/05 10:18:23;;;;;;;1.43;1.10;;;12.30;99.90;;;;;;5071760;28;20725;-69
2022/06/05 10:20:56;;;;;;;0.97;0.87;;;12.30;99.90;;;;;;5072165;28;20168;-69
2022/06/05 10:23:27;;;;;;;1.03;0.70;;;12.20;99.90;;;;;;5072273;28;20174;-68
2022/06/05 10:26:15;;;;;;;2.33;0.80;;;12.10;99.90;;;;;;5071223;28;20185;-69
2022/06/05 10:28:44;;;;;;;0.80;0.80;;;12.10;99.90;;;;;;5071306;28;20181;-66
2022/06/05 10:31:26;;;;;;;0.83;0.80;;;12.00;99.90;;;;;;5071507;28;20563;-69
2022/06/05 10:34:11;;;;;;;1.17;0.70;;;12.00;99.90;;;;;;5071254;28;20650;-67
2022/06/05 10:37:20;;;;;;;1.63;0.80;;;12.00;99.90;;;;;;5071142;28;20566;-69
2022/06/05 10:40:10;;;;;;;1.10;0.70;;;11.90;99.90;;;;;;5029691;28;20546;-69
2022/06/05 10:42:55;;;;;;;0.87;0.70;;;11.90;99.90;;;;;;5063798;28;20188;-68
2022/06/05 10:45:54;;;;;;;0.90;0.80;;;11.90;99.90;;;;;;5071831;28;20221;-68
2022/06/05 10:48:43;;;;;;;1.10;0.80;;;11.80;99.90;;;;;;5071859;28;20544;-69
2022/06/05 10:51:28;;;;;;;0.83;0.80;;;11.70;99.90;;;;;;5071795;28;20741;-67
2022/06/05 10:53:59;;;;;;;0.87;0.87;;;11.80;99.90;;;;;;5071714;28;20200;-69
2022/06/05 10:56:41;;;;;;;1.03;0.60;;;11.80;99.90;;;;;;5071788;28;20615;-68
2022/06/05 10:59:30;;;;;;;0.70;0.60;;;11.80;99.90;;;;;;5071764;28;20201;-69
2022/06/05 11:02:20;;;;;;;2.73;0.70;;;11.90;99.90;;;;;;5071894;28;20177;-69
2022/06/05 11:04:53;;;;;;;3.10;0.80;;;11.80;99.90;;;;;;5070998;28;20193;-68
2022/06/05 11:07:48;;;;;;;2.77;0.73;;;11.70;99.90;;;;;;5072168;28;20181;-69
2022/06/05 11:13:39;;;;;;;0.63;0.63;;;11.90;99.90;;;;;;5054250;28;20275;-69
2022/06/05 11:16:38;;;;;;;2.67;0.63;;;11.70;99.90;;;;;;5071554;28;20177;-69
2022/06/05 11:19:48;;;;;;;0.63;0.60;;;11.60;99.90;;;;;;5072514;28;20736;-70
2022/06/05 11:22:17;;;;;;;1.70;1.10;;;11.50;99.90;;;;;;5072611;28;20209;-69
2022/06/05 11:24:49;;;;;;;1.77;1.30;;;11.40;99.90;;;;;;5072411;28;20173;-68
2022/06/05 11:27:38;;;;;;;2.03;1.00;;;11.40;99.90;;;;;;5071232;28;20186;-68
2022/06/05 11:30:17;;;;;;;3.30;1.20;;;11.40;99.90;;;;;;5072447;28;20182;-68
2022/06/05 11:32:56;;;;;;;3.13;0.93;;;11.30;99.90;;;;;;5072504;28;20193;-68
2022/06/05 11:35:30;;;;;;;1.57;0.90;;;11.40;99.90;;;;;;5072879;28;20216;-68
2022/06/05 11:38:01;;;;;;;1.30;0.90;;;11.40;99.90;;;;;;5072571;28;20180;-68
2022/06/05 11:41:02;;;;;;;1.80;1.07;;;11.40;99.90;;;;;;5072134;28;20246;-69
2022/06/05 11:43:36;;;;;;;1.77;0.97;;;11.20;99.90;;;;;;5072615;28;20711;-68
2022/06/05 11:46:09;;;;;;;2.20;1.13;;;11.10;99.90;;;;;;5072394;28;20169;-69
2022/06/05 11:48:40;;;;;;;3.53;1.63;;;11.10;99.90;;;;;;5071226;28;20195;-68
2022/06/05 11:51:19;;;;;;;2.90;1.07;;;11.10;99.90;;;;;;5071077;28;20211;-68
2022/06/05 11:54:14;;;;;;;1.00;0.90;;;11.30;99.90;;;;;;5072033;28;20197;-69
2022/06/05 11:57:10;;;;;;;1.20;1.10;;;11.30;99.90;;;;;;5072458;28;20171;-70
2022/06/05 11:59:52;;;;;;;2.80;1.20;;;11.40;99.90;;;;;;5072361;28;20587;-68
2022/06/05 12:02:48;;;;;;;2.33;1.20;;;11.40;99.90;;;;;;5072045;28;20187;-68
2022/06/05 12:05:27;;;;;;;2.57;1.03;;;11.30;99.90;;;;;;5071500;28;20278;-68
2022/06/05 12:08:08;;;;;;;1.00;0.90;;;11.20;99.90;;;;;;5075131;28;20606;-68
2022/06/05 12:10:48;;;;;;;1.33;0.83;;;11.10;99.90;;;;;;5073525;28;20680;-68
2022/06/05 12:13:33;;;;;;;1.73;0.90;;;10.90;99.90;;;;;;5074071;28;20271;-69
2022/06/05 12:16:10;;;;;;;1.13;1.00;;;10.80;99.90;;;;;;5076110;28;20196;-69
2022/06/05 12:19:18;;;;;;;1.47;0.90;;;10.80;99.90;;;;;;5075498;28;20328;-69
2022/06/05 12:21:52;;;;;;;1.70;0.80;;;10.70;99.90;;;;;;5074537;28;20274;-68
2022/06/05 12:24:51;;;;;;;1.10;0.87;;;10.60;99.90;;;;;;5075677;28;20235;-69
2022/06/05 12:27:22;;;;;;;1.50;0.90;;;10.40;99.90;;;;;;5075581;28;20186;-68
2022/06/05 12:30:12;;;;;;;0.93;0.93;;;10.20;99.90;;;;;;5075428;28;20191;-68
2022/06/05 12:32:39;;;;;;;3.53;1.20;;;10.10;99.90;;;;;;5071371;28;20245;-68
2022/06/05 12:35:38;;;;;;;1.77;1.10;;;10.00;99.90;;;;;;5076121;28;20181;-69
2022/06/05 12:38:17;;;;;;;2.27;1.50;;;9.90;99.90;;;;;;5072950;28;20197;-70
2022/06/05 12:41:01;;;;;;;1.13;1.03;;;10.00;99.90;;;;;;5074066;28;20185;-68
2022/06/05 12:43:54;;;;;;;1.63;0.93;;;10.10;99.90;;;;;;5075376;28;20630;-67
2022/06/05 12:46:44;;;;;;;3.13;1.00;;;10.10;99.90;;;;;;5075092;28;20181;-68
2022/06/05 12:49:47;;;;;;;1.47;1.03;;;10.10;99.90;;;;;;5075203;28;20235;-68
2022/06/05 12:52:25;;;;;;;1.47;0.83;;;10.30;99.90;;;;;;5074140;28;20229;-68
2022/06/05 12:55:14;;;;;;;4.83;1.00;;;10.30;99.90;;;;;;5074020;28;20183;-69
2022/06/05 12:57:50;;;;;;;1.00;0.80;;;10.40;99.90;;;;;;5075758;28;20177;-69
2022/06/05 13:00:36;;;;;;;2.27;1.00;;;10.50;99.90;;;;;;5075177;28;20178;-68
2022/06/05 13:03:10;;;;;;;1.37;1.10;;;10.60;99.90;;;;;;5075135;28;20282;-69
2022/06/05 13:05:56;;;;;;;1.17;0.80;;;10.60;99.90;;;;;;5074966;28;20249;-69
2022/06/05 13:08:59;;;;;;;1.17;1.00;;;10.70;99.90;;;;;;5074354;28;20185;-71
2022/06/05 13:11:47;;;;;;;1.20;0.90;;;10.80;99.90;;;;;;5074940;28;20208;-67
2022/06/05 13:14:41;;;;;;;1.10;1.00;;;10.90;99.90;;;;;;5075100;28;20261;-68
2022/06/05 13:17:29;;;;;;;1.87;0.90;;;10.70;99.90;;;;;;5073547;28;20191;-68
2022/06/05 13:20:01;;;;;;;0.87;0.60;;;10.70;99.90;;;;;;5074495;28;20261;-68
2022/06/05 13:22:46;;;;;;;1.73;1.00;;;10.70;99.90;;;;;;5074561;28;20181;-68
2022/06/05 13:25:22;;;;;;;1.90;0.97;;;10.70;99.90;;;;;;5074275;28;20176;-68
2022/06/05 13:28:08;;;;;;;1.10;1.00;;;10.60;99.90;;;;;;5074430;28;20184;-68
2022/06/05 13:31:00;;;;;;;3.03;0.93;;;10.60;99.90;;;;;;5074276;28;20700;-68
2022/06/05 13:33:33;;;;;;;1.43;1.07;;;10.70;99.90;;;;;;5074360;28;20264;-68
2022/06/05 13:36:22;;;;;;;1.73;1.00;;;10.70;99.90;;;;;;5073546;28;20173;-68
2022/06/05 13:39:15;;;;;;;3.17;0.93;;;10.70;99.90;;;;;;5074222;28;20543;-70
2022/06/05 13:42:08;;;;;;;1.67;1.10;;;10.80;99.90;;;;;;5072971;28;20188;-69
2022/06/05 13:44:37;;;;;;;1.67;1.03;;;10.70;99.90;;;;;;5073874;28;20189;-67
2022/06/05 13:47:15;;;;;;;1.63;1.00;;;10.70;99.90;;;;;;5073752;28;20212;-68
2022/06/05 13:50:09;;;;;;;3.13;0.90;;;10.70;99.90;;;;;;5073850;28;20195;-68
2022/06/05 13:53:11;;;;;;;1.53;0.93;;;10.70;99.90;;;;;;5073766;28;20187;-67